Time;durP1;ratioP1;P1;durP2;ratioP2;P2;SDS_P1;SDS_P2;PMS_P1;PMS_P2;Temp;Humidity;BMP_temperature;BMP_pressure;BME280_temperature;BME280_humidity;BME280_pressure;Samples;Min_cycle;Max_cycle;Signal;HPM_P1;HPM_P2
2023/01/03 00:01:13;;;;;;;41.40;22.17;;;;;;;8.44;100.00;99722.52;4199959;83;28475;-93
2023/01/03 00:07:32;;;;;;;42.98;22.48;;;;;;;8.35;100.00;99729.88;4221448;83;28522;-92
2023/01/03 00:13:17;;;;;;;38.13;20.97;;;;;;;8.29;100.00;99721.81;4173751;83;28607;-93
2023/01/03 00:19:19;;;;;;;40.00;21.05;;;;;;;8.22;100.00;99727.95;4191657;82;28568;-89
2023/01/03 00:25:20;;;;;;;39.35;21.15;;;;;;;8.48;100.00;99724.26;4172489;83;28582;-91
2023/01/03 00:31:21;;;;;;;36.60;19.57;;;;;;;8.57;100.00;99731.66;4155559;83;28479;-93
2023/01/03 00:37:23;;;;;;;35.25;19.17;;;;;;;8.66;100.00;99729.11;4199307;83;28585;-91
2023/01/03 00:43:30;;;;;;;34.53;19.25;;;;;;;8.61;100.00;99740.94;4197085;83;28509;-91
2023/01/03 00:49:31;;;;;;;36.33;19.98;;;;;;;8.44;100.00;99752.49;4196949;83;28589;-91
2023/01/03 00:55:34;;;;;;;41.40;20.70;;;;;;;8.40;100.00;99752.06;4201685;83;28486;-90
2023/01/03 01:01:38;;;;;;;40.17;20.25;;;;;;;8.41;100.00;99751.56;4199480;83;28485;-90
2023/01/03 01:07:39;;;;;;;38.30;20.50;;;;;;;8.55;100.00;99766.69;4198121;83;28561;-89
2023/01/03 01:13:41;;;;;;;39.58;21.00;;;;;;;8.55;100.00;99768.03;4207589;83;28478;-94
2023/01/03 01:19:45;;;;;;;38.50;20.30;;;;;;;8.57;100.00;99780.72;4204229;85;28561;-90
2023/01/03 01:25:46;;;;;;;35.23;18.90;;;;;;;8.63;100.00;99767.86;4213463;82;28484;-89
2023/01/03 01:31:47;;;;;;;32.75;18.42;;;;;;;8.53;100.00;99767.91;4178429;83;28533;-90
2023/01/03 01:37:48;;;;;;;34.25;17.37;;;;;;;8.63;100.00;99764.34;4216765;83;28532;-89
2023/01/03 01:50:38;;;;;;;26.75;15.48;;;;;;;8.72;100.00;99767.16;4198294;83;28533;-90
2023/01/03 01:56:42;;;;;;;33.92;17.37;;;;;;;8.98;100.00;99774.16;4181769;83;28541;-89
2023/01/03 02:02:46;;;;;;;32.38;16.95;;;;;;;9.13;100.00;99781.53;4215112;83;28589;-89
2023/01/03 02:08:47;;;;;;;31.50;17.95;;;;;;;9.25;100.00;99774.22;4191530;83;28607;-90
2023/01/03 02:15:09;;;;;;;30.75;16.30;;;;;;;9.14;100.00;99764.90;4199457;83;28509;-92
2023/01/03 02:21:38;;;;;;;27.58;15.58;;;;;;;9.17;100.00;99769.35;4172022;83;28531;-91
2023/01/03 02:27:49;;;;;;;28.00;15.50;;;;;;;9.07;100.00;99772.94;4178488;83;28596;-91
2023/01/03 02:33:54;;;;;;;28.20;16.02;;;;;;;8.96;100.00;99772.19;4212848;83;28730;-91
2023/01/03 02:40:02;;;;;;;26.85;15.40;;;;;;;8.90;100.00;99773.33;4183725;83;28535;-88
2023/01/03 02:46:11;;;;;;;29.02;15.23;;;;;;;8.79;100.00;99789.47;4194058;83;28490;-88
2023/01/03 02:52:15;;;;;;;27.50;14.68;;;;;;;8.74;100.00;99797.28;4188829;83;28529;-89
2023/01/03 02:58:22;;;;;;;28.07;15.48;;;;;;;8.62;100.00;99792.18;4193408;83;28509;-84
2023/01/03 03:04:24;;;;;;;27.67;15.20;;;;;;;8.75;100.00;99795.44;4216439;83;28520;-84
2023/01/03 03:16:48;;;;;;;27.25;15.68;;;;;;;8.62;100.00;99798.38;4204570;83;28564;-87
2023/01/03 03:29:15;;;;;;;32.35;17.07;;;;;;;8.45;100.00;99819.80;4197207;83;28515;-88
2023/01/03 03:35:17;;;;;;;37.48;18.50;;;;;;;8.79;100.00;99828.35;4198261;83;28573;-87
2023/01/03 03:48:00;;;;;;;33.35;19.27;;;;;;;9.03;100.00;99848.96;4186448;83;28525;-83
2023/01/03 03:54:05;;;;;;;34.33;18.75;;;;;;;9.14;100.00;99859.64;4175273;83;28693;-82
2023/01/03 04:00:10;;;;;;;32.13;17.70;;;;;;;9.08;100.00;99869.02;4220862;83;28608;-84
2023/01/03 04:06:19;;;;;;;25.88;13.72;;;;;;;9.15;100.00;99868.50;4213004;83;28507;-83
2023/01/03 04:12:21;;;;;;;24.02;13.05;;;;;;;9.31;100.00;99868.15;4130765;83;28492;-82
2023/01/03 04:18:22;;;;;;;18.90;10.43;;;;;;;9.54;100.00;99868.30;4224301;82;28509;-82
2023/01/03 04:24:23;;;;;;;17.35;8.88;;;;;;;9.83;100.00;99872.14;4187544;83;28545;-83
2023/01/03 04:30:24;;;;;;;13.65;7.62;;;;;;;10.07;100.00;99877.96;4114432;84;28539;-83
2023/01/03 04:36:25;;;;;;;12.68;7.53;;;;;;;10.27;100.00;99880.12;4225966;82;28477;-81
2023/01/03 04:48:47;;;;;;;20.40;11.63;;;;;;;10.41;100.00;99894.87;4241379;81;28565;-86
2023/01/03 04:54:48;;;;;;;18.12;11.33;;;;;;;10.42;100.00;99904.63;4221474;82;28604;-85
2023/01/03 05:00:49;;;;;;;23.27;12.80;;;;;;;10.26;100.00;99896.44;4224081;83;28466;-85
2023/01/03 05:06:54;;;;;;;22.27;13.25;;;;;;;10.28;100.00;99907.30;4222269;82;28517;-85
2023/01/03 05:13:01;;;;;;;21.70;13.10;;;;;;;10.14;100.00;99922.59;4220547;83;37747;-85
2023/01/03 05:19:02;;;;;;;21.20;12.68;;;;;;;10.01;100.00;99919.38;4206667;82;29139;-86
2023/01/03 05:31:24;;;;;;;22.48;12.13;;;;;;;9.55;100.00;99945.12;4242519;82;28525;-90
2023/01/03 05:37:25;;;;;;;19.55;11.18;;;;;;;9.57;100.00;99959.16;4249322;81;28521;-91
2023/01/03 05:43:28;;;;;;;19.90;10.88;;;;;;;9.53;100.00;99967.31;4209066;82;28513;-91
2023/01/03 05:49:29;;;;;;;19.17;11.00;;;;;;;9.38;100.00;99980.08;4229673;82;28471;-89
2023/01/03 05:55:30;;;;;;;20.65;11.85;;;;;;;9.48;100.00;99991.27;4215354;82;28484;-90
2023/01/03 06:01:31;;;;;;;19.60;10.75;;;;;;;9.58;100.00;99992.22;4225425;83;28544;-86
2023/01/03 06:07:35;;;;;;;22.10;11.40;;;;;;;9.47;100.00;100008.38;4222784;82;28568;-87
2023/01/03 06:13:36;;;;;;;22.93;11.95;;;;;;;9.51;100.00;100010.98;4239117;83;28951;-88
2023/01/03 06:19:37;;;;;;;20.20;11.83;;;;;;;9.68;100.00;100014.65;4257806;82;28507;-88
2023/01/03 06:25:38;;;;;;;21.93;11.93;;;;;;;9.57;100.00;100024.13;4233902;82;28564;-87
2023/01/03 06:31:40;;;;;;;23.15;12.13;;;;;;;9.55;100.00;100030.22;4238450;82;28495;-89
2023/01/03 06:37:41;;;;;;;22.13;11.93;;;;;;;9.40;100.00;100041.90;4156258;84;28527;-91
2023/01/03 06:43:43;;;;;;;24.55;12.80;;;;;;;9.35;100.00;100057.25;4176146;84;28541;-89
2023/01/03 06:56:04;;;;;;;26.25;13.03;;;;;;;9.33;100.00;100079.44;4236315;82;28495;-82
2023/01/03 07:02:05;;;;;;;22.90;13.00;;;;;;;9.38;100.00;100094.95;4238373;82;28490;-83
2023/01/03 07:08:09;;;;;;;23.55;12.43;;;;;;;9.47;100.00;100093.77;4237425;82;28600;-84
2023/01/03 07:14:17;;;;;;;23.92;12.25;;;;;;;9.63;100.00;100106.05;4239101;82;28503;-84
2023/01/03 07:20:14;;;;;;;21.37;11.48;;;;;;;9.67;100.00;100110.51;4238596;82;28481;-83
2023/01/03 07:26:15;;;;;;;23.65;11.90;;;;;;;9.74;100.00;100109.20;4251254;82;28562;-83
2023/01/03 07:32:17;;;;;;;23.52;12.05;;;;;;;9.44;100.00;100110.78;4230957;82;28593;-83
2023/01/03 07:38:18;;;;;;;23.70;12.58;;;;;;;9.48;100.00;100121.46;4237695;82;28500;-83
2023/01/03 07:44:19;;;;;;;23.32;11.83;;;;;;;9.37;100.00;100126.00;4255569;82;28516;-83
2023/01/03 07:50:20;;;;;;;22.73;12.65;;;;;;;9.36;100.00;100134.59;4247090;82;28603;-83
2023/01/03 07:56:24;;;;;;;21.90;12.43;;;;;;;9.61;100.00;100136.30;4261197;82;28469;-83
2023/01/03 08:02:25;;;;;;;26.85;13.35;;;;;;;9.80;100.00;100145.17;4257314;82;28519;-84
2023/01/03 08:08:26;;;;;;;28.10;13.28;;;;;;;9.63;100.00;100152.19;4233952;82;28595;-84
2023/01/03 08:14:28;;;;;;;23.25;13.43;;;;;;;9.84;100.00;100159.84;4211747;82;28600;-84
2023/01/03 08:20:29;;;;;;;27.65;14.63;;;;;;;9.69;100.00;100163.50;4204194;83;28459;-84
2023/01/03 08:26:30;;;;;;;25.75;13.05;;;;;;;9.93;100.00;100170.74;4204737;83;28557;-83
2023/01/03 08:32:32;;;;;;;25.45;13.48;;;;;;;9.92;100.00;100177.15;4178256;83;28512;-84
2023/01/03 08:38:40;;;;;;;27.17;15.00;;;;;;;9.87;100.00;100182.30;4204792;83;28501;-84
2023/01/03 08:44:43;;;;;;;25.97;13.00;;;;;;;10.08;100.00;100184.05;4215687;83;28468;-80
2023/01/03 08:50:44;;;;;;;24.87;13.62;;;;;;;10.09;100.00;100188.92;4131517;84;28594;-82
2023/01/03 08:56:45;;;;;;;33.42;15.70;;;;;;;10.33;100.00;100188.39;4208529;83;28516;-83
2023/01/03 09:02:46;;;;;;;29.40;15.13;;;;;;;10.53;100.00;100193.57;4137583;84;28517;-83
2023/01/03 09:08:48;;;;;;;31.27;16.25;;;;;;;10.58;100.00;100191.94;4171329;84;28559;-83
2023/01/03 09:14:49;;;;;;;27.80;15.98;;;;;;;10.91;100.00;100187.63;4153662;84;28512;-84
2023/01/03 09:20:51;;;;;;;29.42;16.55;;;;;;;11.10;100.00;100190.05;4140398;84;28639;-83
2023/01/03 09:26:54;;;;;;;31.15;16.30;;;;;;;11.25;100.00;100196.58;4147977;84;28592;-83
2023/01/03 09:32:55;;;;;;;28.85;15.03;;;;;;;11.29;100.00;100195.12;4172984;84;28529;-84
2023/01/03 09:38:56;;;;;;;26.42;15.53;;;;;;;11.50;100.00;100193.75;4167527;84;28516;-83
2023/01/03 09:44:57;;;;;;;37.20;18.62;;;;;;;11.69;100.00;100187.51;4172495;84;28557;-83
2023/01/03 09:50:59;;;;;;;31.82;16.73;;;;;;;12.02;100.00;100182.23;4174508;83;28533;-82
2023/01/03 10:03:42;;;;;;;23.85;12.05;;;;;;;12.03;100.00;100185.27;4158072;83;28523;-83
2023/01/03 10:09:47;;;;;;;21.97;12.00;;;;;;;11.91;100.00;100181.86;4184195;83;28482;-82
2023/01/03 10:16:10;;;;;;;23.12;12.45;;;;;;;11.86;100.00;100184.38;4197455;83;28461;-82
2023/01/03 10:22:20;;;;;;;17.45;10.20;;;;;;;12.48;100.00;100185.81;4194343;83;28596;-83
2023/01/03 10:28:26;;;;;;;17.02;10.08;;;;;;;12.44;100.00;100184.06;4182133;83;28555;-82
2023/01/03 10:34:27;;;;;;;;;;;;;;;12.44;100.00;100184.60;4230327;82;28564;-82
2023/01/03 10:40:44;;;;;;;13.45;7.72;;;;;;;12.54;100.00;100188.47;4179955;82;20286;-83
2023/01/03 10:46:55;;;;;;;14.90;7.97;;;;;;;12.20;100.00;100185.11;4177278;83;28599;-82
2023/01/03 10:53:06;;;;;;;13.22;7.95;;;;;;;12.30;100.00;100191.41;4136962;83;28562;-83
2023/01/03 10:59:17;;;;;;;17.17;9.20;;;;;;;12.69;99.98;100188.72;4220252;82;28540;-83
2023/01/03 11:05:24;;;;;;;17.25;9.68;;;;;;;13.11;97.29;100182.30;4120129;83;28471;-82
2023/01/03 11:11:37;;;;;;;14.68;8.73;;;;;;;13.20;95.08;100192.84;4129801;84;28595;-82
2023/01/03 11:17:56;;;;;;;14.83;8.68;;;;;;;13.35;93.26;100179.81;4106568;84;28507;-82
2023/01/03 11:24:04;;;;;;;17.70;8.80;;;;;;;13.63;92.73;100177.20;4157784;83;28565;-83
2023/01/03 11:30:40;;;;;;;16.82;9.53;;;;;;;13.50;91.87;100170.59;4201370;83;28505;-83
2023/01/03 11:37:09;;;;;;;18.02;8.90;;;;;;;13.17;92.73;100176.55;4207873;83;28516;-84
2023/01/03 11:43:23;;;;;;;16.97;9.58;;;;;;;13.22;92.17;100179.42;4208395;82;28517;-84
2023/01/03 11:49:28;;;;;;;16.23;9.50;;;;;;;13.14;92.46;100170.24;4094499;84;29084;-83
2023/01/03 11:55:36;;;;;;;15.90;8.90;;;;;;;13.02;93.30;100164.72;4128095;84;28532;-83
2023/01/03 12:01:47;;;;;;;16.77;9.08;;;;;;;12.81;94.28;100164.58;4133020;84;28541;-83
2023/01/03 12:07:55;;;;;;;19.73;9.93;;;;;;;12.69;96.71;100164.44;4203233;82;28500;-83
2023/01/03 12:14:09;;;;;;;17.42;9.70;;;;;;;12.63;97.73;100162.59;4215469;82;28598;-83
2023/01/03 12:20:25;;;;;;;19.40;10.20;;;;;;;12.59;96.05;100164.89;4206981;82;28627;-83
2023/01/03 12:26:25;;;;;;;18.55;10.48;;;;;;;12.74;94.80;100162.44;4206186;81;28513;-82
2023/01/03 12:32:33;;;;;;;18.95;10.43;;;;;;;12.64;95.69;100159.69;4228659;81;28502;-83
2023/01/03 12:38:37;;;;;;;20.20;10.28;;;;;;;12.65;96.12;100157.30;4153126;83;28548;-82
2023/01/03 12:44:41;;;;;;;18.73;9.73;;;;;;;12.64;95.53;100152.11;4214759;83;28547;-83
2023/01/03 12:50:48;;;;;;;16.25;9.10;;;;;;;12.67;94.72;100153.04;4187663;83;28532;-83
2023/01/03 12:57:01;;;;;;;16.85;9.35;;;;;;;12.78;94.01;100153.69;4149767;84;29042;-83
2023/01/03 13:03:18;;;;;;;18.85;9.70;;;;;;;12.54;94.00;100144.50;4127269;83;28551;-83
2023/01/03 13:09:30;;;;;;;18.45;10.00;;;;;;;12.48;94.50;100154.28;4120791;82;28950;-82
2023/01/03 13:15:33;;;;;;;17.52;9.25;;;;;;;12.48;94.48;100150.24;4150277;82;28782;-82
2023/01/03 13:21:56;;;;;;;15.85;8.75;;;;;;;12.48;94.60;100150.24;4146408;82;28535;-82
2023/01/03 13:28:15;;;;;;;15.40;8.33;;;;;;;12.59;94.43;100151.95;4120999;83;28641;-82
2023/01/03 13:34:30;;;;;;;18.23;8.65;;;;;;;12.39;94.42;100146.98;4116809;83;28492;-82
2023/01/03 13:40:32;;;;;;;16.60;7.83;;;;;;;12.62;94.08;100151.50;4158513;83;28552;-83
2023/01/03 13:46:33;;;;;;;13.20;7.65;;;;;;;12.50;93.93;100143.30;4162772;83;28530;-83
2023/01/03 13:52:37;;;;;;;17.65;8.00;;;;;;;12.45;93.31;100149.34;4139679;83;28519;-83
2023/01/03 13:58:43;;;;;;;14.87;8.15;;;;;;;12.44;93.52;100156.28;4109050;84;28538;-82
2023/01/03 14:05:06;;;;;;;13.22;7.97;;;;;;;12.40;93.77;100149.14;4163394;82;28523;-82
2023/01/03 14:11:15;;;;;;;15.55;7.95;;;;;;;12.20;94.34;100158.16;4113479;84;28608;-82
2023/01/03 14:17:18;;;;;;;16.60;8.68;;;;;;;12.03;95.37;100161.02;4234833;82;28513;-83
2023/01/03 14:23:22;;;;;;;16.48;8.05;;;;;;;11.79;96.44;100179.00;4216779;82;28489;-83
2023/01/03 14:29:25;;;;;;;14.30;8.05;;;;;;;11.70;97.94;100178.38;4129218;83;28636;-83
2023/01/03 14:35:38;;;;;;;12.82;7.90;;;;;;;11.91;97.02;100183.20;4253507;82;28495;-83
2023/01/03 14:41:41;;;;;;;15.58;9.23;;;;;;;11.87;97.68;100187.38;4232660;82;28571;-83
2023/01/03 14:47:43;;;;;;;18.87;9.88;;;;;;;12.17;95.88;100188.25;4219913;82;28516;-82
2023/01/03 14:53:48;;;;;;;17.60;9.38;;;;;;;12.06;96.12;100185.67;4164188;83;28580;-83
2023/01/03 14:59:49;;;;;;;18.12;10.70;;;;;;;12.16;95.83;100185.75;4172788;83;28536;-83
2023/01/03 15:05:53;;;;;;;16.90;9.78;;;;;;;12.00;96.27;100179.23;4172430;83;28549;-83
2023/01/03 15:11:54;;;;;;;17.42;9.98;;;;;;;11.97;96.54;100182.87;4188119;83;28511;-83
2023/01/03 15:17:59;;;;;;;19.98;10.38;;;;;;;11.81;97.38;100192.25;4183065;83;28529;-83
2023/01/03 15:24:00;;;;;;;22.77;11.00;;;;;;;11.83;98.10;100198.28;4170202;83;28590;-83
2023/01/03 15:30:19;;;;;;;17.42;9.95;;;;;;;11.78;98.32;100198.06;4171679;83;28515;-81
2023/01/03 15:36:22;;;;;;;19.55;11.10;;;;;;;11.78;98.93;100208.34;4194036;83;28529;-83
2023/01/03 15:48:54;;;;;;;20.68;11.83;;;;;;;11.60;100.00;100229.16;4197699;83;28549;-84
2023/01/03 15:54:56;;;;;;;22.82;12.28;;;;;;;11.62;100.00;100237.89;4187372;83;28547;-84
2023/01/03 16:00:58;;;;;;;21.97;12.53;;;;;;;11.56;100.00;100244.94;4200686;83;28476;-84
2023/01/03 16:07:03;;;;;;;23.35;12.73;;;;;;;11.48;100.00;100266.69;4183746;83;28536;-83
2023/01/03 16:13:05;;;;;;;23.70;13.30;;;;;;;11.24;100.00;100270.27;4178626;83;28571;-83
2023/01/03 16:19:06;;;;;;;24.20;12.85;;;;;;;11.38;100.00;100273.81;4171953;83;28537;-84
2023/01/03 16:25:11;;;;;;;24.92;14.13;;;;;;;11.21;100.00;100288.72;4180770;83;28519;-83
2023/01/03 16:31:18;;;;;;;30.70;15.75;;;;;;;10.91;100.00;100285.84;4178035;83;28527;-83
2023/01/03 16:37:20;;;;;;;32.00;17.02;;;;;;;10.72;100.00;100296.33;4170361;83;28552;-84
2023/01/03 16:43:26;;;;;;;31.05;16.70;;;;;;;10.93;100.00;100297.76;4163711;83;28545;-83
2023/01/03 16:49:29;;;;;;;32.35;17.07;;;;;;;10.92;100.00;100298.26;4200814;83;28609;-87
2023/01/03 16:55:38;;;;;;;28.38;15.60;;;;;;;10.71;100.00;100309.47;4202887;83;29186;-89
2023/01/03 17:01:45;;;;;;;33.75;17.65;;;;;;;10.56;100.00;100312.83;4184812;83;28520;-88
2023/01/03 17:07:55;;;;;;;34.88;18.00;;;;;;;10.39;100.00;100313.64;4171167;83;28515;-87
2023/01/03 17:21:36;;;;;;;;;;;;;;;;;;;;;
2023/01/03 17:49:25;;;;;;;26.45;14.85;;;;;;;9.67;100.00;100328.52;3906447;88;28571;-84
2023/01/03 18:15:58;;;;;;;25.00;13.45;;;;;;;9.26;100.00;100338.05;3775621;92;28596;-85
2023/01/03 18:57:38;;;;;;;35.45;20.25;;;;;;;9.05;100.00;100349.08;3708548;94;28573;-86
2023/01/03 19:10:20;;;;;;;41.75;22.00;;;;;;;9.53;100.00;100357.94;4114600;83;28543;-87
2023/01/03 19:16:28;;;;;;;47.10;24.85;;;;;;;9.43;100.00;100356.93;4170378;84;28554;-92
2023/01/03 19:22:34;;;;;;;46.73;25.17;;;;;;;9.54;100.00;100352.89;4165748;84;28584;-92
2023/01/03 19:28:39;;;;;;;44.20;24.87;;;;;;;9.52;100.00;100352.75;4185997;82;28569;-91
2023/01/03 19:34:49;;;;;;;45.38;24.65;;;;;;;9.54;100.00;100362.81;4231926;81;33921;-89
2023/01/03 19:41:06;;;;;;;37.03;20.92;;;;;;;9.49;100.00;100370.09;4219657;81;28618;-87
2023/01/03 19:47:14;;;;;;;35.63;21.17;;;;;;;9.62;100.00;100375.59;4186601;82;28514;-87
2023/01/03 19:53:15;;;;;;;40.03;22.90;;;;;;;9.82;100.00;100374.09;4240337;82;28529;-89
2023/01/03 19:59:28;;;;;;;41.30;24.00;;;;;;;9.62;100.00;100381.45;4250892;82;28600;-86
2023/01/03 20:05:36;;;;;;;;;;;;;;;9.84;100.00;100370.20;4258423;82;28599;-82
2023/01/03 20:11:39;;;;;;;54.90;29.07;;;;;;;9.84;100.00;100368.02;4242535;82;20277;-80
2023/01/03 20:17:40;;;;;;;58.48;31.35;;;;;;;9.87;100.00;100375.18;4242339;82;28517;-80
2023/01/03 20:23:47;;;;;;;53.55;29.80;;;;;;;10.04;100.00;100381.63;4222651;82;28621;-81
2023/01/03 20:29:54;;;;;;;53.25;29.95;;;;;;;9.96;100.00;100381.27;4237686;82;28642;-82
2023/01/03 20:35:56;;;;;;;53.48;28.77;;;;;;;10.06;100.00;100386.82;4204200;82;28577;-85
2023/01/03 20:42:00;;;;;;;53.60;29.02;;;;;;;9.89;100.00;100392.45;4179235;83;28553;-84
2023/01/03 20:48:10;;;;;;;53.68;29.42;;;;;;;9.93;100.00;100392.91;4239360;82;28927;-82
2023/01/03 20:54:11;;;;;;;54.42;29.72;;;;;;;9.83;100.00;100392.72;4211438;82;28558;-85
2023/01/03 21:00:30;;;;;;;59.23;31.00;;;;;;;9.86;100.00;100392.85;4239270;82;28599;-86
2023/01/03 21:06:33;;;;;;;56.53;29.52;;;;;;;9.76;100.00;100392.66;4194509;82;28637;-83
2023/01/03 21:12:34;;;;;;;56.10;29.90;;;;;;;9.63;100.00;100396.55;4223068;82;28501;-82
2023/01/03 21:18:35;;;;;;;47.40;27.13;;;;;;;9.45;100.00;100392.46;4214865;82;28899;-82
2023/01/03 21:24:39;;;;;;;51.88;28.17;;;;;;;9.34;100.00;100393.78;4215164;82;28468;-82
2023/01/03 21:30:41;;;;;;;54.40;29.50;;;;;;;9.04;100.00;100391.69;4247147;82;28523;-81
2023/01/03 21:36:42;;;;;;;49.73;27.85;;;;;;;8.87;100.00;100393.22;4164347;83;28581;-82
2023/01/03 21:43:20;;;;;;;49.70;28.02;;;;;;;8.92;100.00;100392.16;4224093;82;28632;-82
2023/01/03 21:48:55;;;;;;;52.98;29.02;;;;;;;8.93;100.00;100400.53;4217288;82;28490;-82
2023/01/03 21:54:57;;;;;;;55.25;30.30;;;;;;;8.97;100.00;100405.52;4224612;82;28467;-81
2023/01/03 22:01:17;;;;;;;56.53;31.07;;;;;;;8.94;100.00;100420.13;4249767;81;28536;-81
2023/01/03 22:07:18;;;;;;;52.70;28.35;;;;;;;8.85;100.00;100418.06;4244356;82;28484;-81
2023/01/03 22:13:20;;;;;;;50.43;28.30;;;;;;;8.79;100.00;100415.61;4243311;82;28529;-82
2023/01/03 22:19:21;;;;;;;48.10;26.80;;;;;;;8.75;100.00;100432.25;4227009;82;28588;-81
2023/01/03 22:25:22;;;;;;;52.05;27.85;;;;;;;8.68;100.00;100428.63;4243652;81;28502;-83
2023/01/03 22:31:23;;;;;;;53.63;29.32;;;;;;;8.69;100.00;100427.13;4229914;83;28495;-81
2023/01/03 22:37:24;;;;;;;55.38;30.10;;;;;;;8.50;100.00;100437.36;4218239;81;28499;-81
2023/01/03 22:43:26;;;;;;;60.10;33.05;;;;;;;8.49;100.00;100441.55;4217190;82;28522;-81
2023/01/03 22:49:27;;;;;;;62.27;30.88;;;;;;;8.47;100.00;100441.72;4243186;83;28597;-81
2023/01/03 22:55:29;;;;;;;53.70;30.00;;;;;;;8.39;100.00;100439.64;4200791;83;29471;-81
2023/01/03 23:01:30;;;;;;;57.60;30.72;;;;;;;8.31;100.00;100438.70;4226258;82;28503;-81
2023/01/03 23:07:32;;;;;;;52.93;29.42;;;;;;;8.12;100.00;100431.98;4233885;81;28475;-82
2023/01/03 23:13:36;;;;;;;50.60;28.85;;;;;;;8.01;100.00;100434.59;4225696;82;28604;-82
2023/01/03 23:19:37;;;;;;;52.85;28.85;;;;;;;7.75;100.00;100429.08;4236066;82;28650;-81
2023/01/03 23:25:39;;;;;;;51.95;28.15;;;;;;;7.62;100.00;100436.87;4223239;82;28491;-81
2023/01/03 23:31:41;;;;;;;51.55;27.52;;;;;;;7.31;100.00;100425.19;4230589;83;28578;-82
2023/01/03 23:37:42;;;;;;;56.37;29.05;;;;;;;7.09;100.00;100420.10;4232726;82;28532;-82
2023/01/03 23:43:43;;;;;;;51.50;28.87;;;;;;;7.04;100.00;100414.45;4200333;83;28491;-81
2023/01/03 23:49:44;;;;;;;51.92;26.90;;;;;;;7.00;100.00;100414.45;4198076;81;28519;-83
2023/01/03 23:55:46;;;;;;;48.38;27.00;;;;;;;6.77;100.00;100428.09;4227388;82;28577;-83
